createdAt,value
2022-11-16T00:02:12.474Z,8.81
2022-11-16T00:04:40.695Z,8.80
2022-11-16T00:07:10.810Z,8.86
2022-11-16T00:09:39.088Z,8.87
2022-11-16T00:12:09.701Z,8.89
2022-11-16T00:14:38.155Z,8.85
2022-11-16T00:17:06.255Z,8.82
2022-11-16T00:19:34.201Z,8.77
2022-11-16T00:22:02.149Z,8.78
2022-11-16T00:24:31.471Z,8.74
2022-11-16T00:26:59.394Z,8.79
2022-11-16T00:29:28.285Z,8.79
2022-11-16T00:31:56.397Z,8.84
2022-11-16T00:34:24.860Z,8.65
2022-11-16T00:36:53.216Z,8.74
2022-11-16T00:39:21.363Z,8.82
2022-11-16T00:41:51.376Z,8.73
2022-11-16T00:44:19.500Z,8.81
2022-11-16T00:46:47.741Z,8.57
2022-11-16T00:49:16.207Z,8.66
2022-11-16T00:51:44.231Z,8.64
2022-11-16T00:54:12.179Z,8.78
2022-11-16T00:56:40.691Z,8.78
2022-11-16T00:59:10.095Z,8.73
2022-11-16T01:01:38.132Z,8.78
2022-11-16T01:04:06.254Z,8.84
2022-11-16T01:06:34.215Z,8.81
2022-11-16T01:09:02.269Z,8.82
2022-11-16T01:11:47.807Z,8.75
2022-11-16T01:14:17.579Z,8.74
2022-11-16T01:16:45.487Z,8.67
2022-11-16T01:19:13.423Z,8.59
2022-11-16T01:21:41.349Z,8.63
2022-11-16T01:24:09.343Z,8.70
2022-11-16T01:26:37.275Z,8.75
2022-11-16T01:29:05.413Z,8.81
2022-11-16T01:31:34.724Z,8.81
2022-11-16T01:34:02.699Z,8.84
2022-11-16T01:36:31.033Z,8.84
2022-11-16T01:38:59.114Z,8.72
2022-11-16T01:41:27.730Z,8.55
2022-11-16T01:43:58.645Z,8.69
2022-11-16T01:46:28.387Z,8.70
2022-11-16T01:49:03.104Z,8.75
2022-11-16T01:51:31.279Z,8.67
2022-11-16T01:54:02.613Z,8.76
2022-11-16T01:56:33.845Z,8.82
2022-11-16T01:59:01.872Z,8.81
2022-11-16T02:01:29.891Z,8.79
2022-11-16T02:03:59.430Z,8.76
2022-11-16T02:06:56.536Z,8.75
2022-11-16T02:09:57.404Z,8.80
2022-11-16T02:12:45.363Z,8.77
2022-11-16T02:15:21.677Z,8.79
2022-11-16T02:17:59.165Z,8.88
2022-11-16T02:20:52.844Z,8.82
2022-11-16T02:23:50.164Z,8.84
2022-11-16T02:26:34.860Z,8.89
2022-11-16T02:29:20.208Z,8.65
2022-11-16T02:31:54.119Z,8.63
2022-11-16T02:34:24.707Z,8.69
2022-11-16T02:36:55.556Z,8.70
2022-11-16T02:39:28.231Z,8.63
2022-11-16T02:41:58.679Z,8.71
2022-11-16T02:44:32.676Z,8.71
2022-11-16T02:47:05.121Z,8.68
2022-11-16T02:49:36.698Z,8.69
2022-11-16T02:52:06.040Z,8.61
2022-11-16T02:54:33.980Z,8.43
2022-11-16T02:57:30.195Z,8.50
2022-11-16T03:00:01.209Z,8.47
2022-11-16T03:02:35.581Z,8.39
2022-11-16T03:05:09.254Z,8.25
2022-11-16T03:07:43.546Z,8.41
2022-11-16T03:10:33.224Z,8.43
2022-11-16T03:13:02.506Z,8.46
2022-11-16T03:15:32.257Z,8.48
2022-11-16T03:18:01.721Z,8.47
2022-11-16T03:20:34.324Z,8.48
2022-11-16T03:23:05.034Z,8.54
2022-11-16T03:25:37.328Z,8.42
2022-11-16T03:28:10.041Z,8.51
2022-11-16T03:30:43.038Z,8.60
2022-11-16T03:33:17.894Z,8.57
2022-11-16T03:35:53.818Z,8.57
2022-11-16T03:38:24.229Z,8.63
2022-11-16T03:40:52.696Z,8.53
2022-11-16T03:43:21.751Z,8.59
2022-11-16T03:45:51.508Z,8.52
2022-11-16T03:48:19.462Z,8.54
2022-11-16T03:50:47.593Z,8.54
2022-11-16T03:53:15.588Z,8.59
2022-11-16T03:55:49.630Z,8.66
2022-11-16T03:58:18.737Z,8.66
2022-11-16T04:00:46.861Z,8.69
2022-11-16T04:03:16.273Z,8.74
2022-11-16T04:06:01.753Z,8.73
2022-11-16T04:08:47.286Z,8.63
2022-11-16T04:11:34.304Z,8.66
2022-11-16T04:14:20.002Z,8.67
2022-11-16T04:17:05.410Z,8.70
2022-11-16T04:19:57.741Z,8.67
2022-11-16T04:22:47.665Z,8.63
2022-11-16T04:25:18.900Z,8.57
2022-11-16T04:28:04.695Z,8.52
2022-11-16T04:30:54.493Z,8.47
2022-11-16T04:33:39.894Z,8.49
2022-11-16T04:36:27.693Z,8.50
2022-11-16T04:38:55.646Z,8.47
2022-11-16T04:41:40.782Z,8.49
2022-11-16T04:44:08.680Z,8.44
2022-11-16T04:46:54.851Z,8.49
2022-11-16T04:49:22.766Z,8.46
2022-11-16T04:51:52.090Z,8.31
2022-11-16T04:54:20.094Z,8.31
2022-11-16T04:56:48.028Z,8.38
2022-11-16T04:59:16.659Z,8.39
2022-11-16T05:02:02.117Z,8.33
2022-11-16T05:04:30.047Z,8.50
2022-11-16T05:06:59.392Z,8.39
2022-11-16T05:09:27.535Z,8.46
2022-11-16T05:11:55.448Z,8.47
2022-11-16T05:14:23.363Z,8.44
2022-11-16T05:16:51.303Z,8.49
2022-11-16T05:19:36.546Z,8.37
2022-11-16T05:22:05.841Z,8.30
2022-11-16T05:24:36.457Z,8.27
2022-11-16T05:27:05.830Z,8.21
2022-11-16T05:29:33.874Z,8.35
2022-11-16T05:32:02.983Z,8.41
2022-11-16T05:34:30.904Z,8.39
2022-11-16T05:36:59.359Z,8.39
2022-11-16T05:39:28.786Z,8.49
2022-11-16T05:41:57.136Z,8.52
2022-11-16T05:44:25.443Z,8.55
2022-11-16T05:46:53.712Z,8.57
2022-11-16T05:49:21.888Z,8.51
2022-11-16T05:51:50.193Z,8.55
2022-11-16T05:54:20.769Z,8.54
2022-11-16T05:56:50.540Z,8.46
2022-11-16T05:59:20.176Z,8.51
2022-11-16T06:01:48.578Z,8.47
2022-11-16T06:06:59.111Z,8.51
2022-11-16T06:09:27.095Z,8.38
2022-11-16T06:11:56.381Z,8.47
2022-11-16T06:14:24.454Z,8.41
2022-11-16T06:16:52.393Z,8.40
2022-11-16T06:19:20.320Z,8.50
2022-11-16T06:21:48.367Z,8.54
2022-11-16T06:24:16.328Z,8.61
2022-11-16T06:26:44.244Z,8.68
2022-11-16T06:29:13.737Z,8.73
2022-11-16T06:31:41.657Z,8.62
2022-11-16T06:34:10.712Z,8.69
2022-11-16T06:36:38.625Z,8.63
2022-11-16T06:39:06.540Z,8.72
2022-11-16T06:41:40.166Z,8.85
2022-11-16T06:44:09.254Z,8.84
2022-11-16T06:46:38.567Z,8.76
2022-11-16T06:49:06.504Z,8.92
2022-11-16T06:51:34.424Z,8.98
2022-11-16T06:54:02.534Z,8.86
2022-11-16T06:56:30.504Z,8.83
2022-11-16T06:58:58.435Z,8.82
2022-11-16T07:01:26.476Z,8.75
2022-11-16T07:03:57.497Z,8.72
2022-11-16T07:06:25.405Z,8.67
2022-11-16T07:08:53.346Z,8.76
2022-11-16T07:11:21.381Z,8.89
2022-11-16T07:13:49.597Z,8.91
2022-11-16T07:16:17.577Z,8.97
2022-11-16T07:18:45.481Z,9.00
2022-11-16T07:21:16.929Z,9.04
2022-11-16T07:23:45.145Z,9.16
2022-11-16T07:26:13.242Z,9.27
2022-11-16T07:28:47.717Z,9.28
2022-11-16T07:31:16.917Z,9.46
2022-11-16T07:33:45.037Z,9.36
2022-11-16T07:36:15.963Z,9.53
2022-11-16T07:38:44.035Z,9.62
2022-11-16T07:41:14.229Z,9.68
2022-11-16T07:43:42.460Z,9.65
2022-11-16T07:46:46.111Z,9.54
2022-11-16T07:49:01.688Z,9.63
2022-11-16T07:51:30.977Z,9.70
2022-11-16T07:53:58.897Z,9.68
2022-11-16T07:56:27.217Z,9.61
2022-11-16T07:58:55.132Z,9.67
2022-11-16T08:01:23.135Z,9.75
2022-11-16T08:03:54.921Z,9.63
2022-11-16T08:06:25.400Z,9.72
2022-11-16T08:08:58.356Z,9.76
2022-11-16T08:11:27.207Z,9.90
2022-11-16T08:13:55.140Z,9.81
2022-11-16T08:16:24.257Z,9.93
2022-11-16T08:18:52.166Z,9.93
2022-11-16T08:21:21.114Z,9.94
2022-11-16T08:23:50.651Z,9.96
2022-11-16T08:26:23.412Z,9.90
2022-11-16T08:28:53.924Z,9.90
2022-11-16T08:31:24.141Z,9.93
2022-11-16T08:33:52.943Z,9.90
2022-11-16T08:36:21.520Z,9.96
2022-11-16T08:38:51.233Z,9.75
2022-11-16T08:41:20.977Z,9.90
2022-11-16T08:43:53.440Z,9.92
2022-11-16T08:46:21.963Z,9.84
2022-11-16T08:48:50.064Z,9.95
2022-11-16T08:51:20.433Z,10.09
2022-11-16T08:53:49.521Z,10.02
2022-11-16T08:56:19.308Z,10.00
2022-11-16T08:58:50.243Z,10.12
2022-11-16T09:01:23.954Z,10.16
2022-11-16T09:03:53.061Z,10.06
2022-11-16T09:06:21.515Z,10.15
2022-11-16T09:08:49.493Z,10.11
2022-11-16T09:11:19.688Z,10.17
2022-11-16T09:13:48.952Z,10.17
2022-11-16T09:16:17.815Z,9.81
2022-11-16T09:18:47.602Z,9.71
2022-11-16T09:21:19.086Z,9.93
2022-11-16T09:23:47.664Z,9.97
2022-11-16T09:26:16.649Z,10.03
2022-11-16T09:28:44.620Z,10.21
2022-11-16T09:31:12.525Z,10.26
2022-11-16T09:33:40.520Z,9.92
2022-11-16T09:36:10.735Z,10.02
2022-11-16T09:41:42.850Z,10.07
2022-11-16T09:44:26.619Z,10.00
2022-11-16T09:46:57.903Z,9.77
2022-11-16T09:49:30.327Z,9.48
2022-11-16T09:52:03.591Z,9.63
2022-11-16T09:54:36.130Z,9.84
2022-11-16T09:57:12.211Z,9.81
2022-11-16T09:59:45.499Z,10.05
2022-11-16T10:02:23.723Z,10.19
2022-11-16T10:04:58.541Z,10.30
2022-11-16T10:07:34.453Z,10.36
2022-11-16T10:10:02.475Z,10.49
2022-11-16T10:12:37.681Z,10.51
2022-11-16T10:15:33.721Z,10.55
2022-11-16T10:18:18.469Z,10.54
2022-11-16T10:21:03.694Z,10.53
2022-11-16T10:23:43.119Z,10.59
2022-11-16T10:26:22.660Z,10.72
2022-11-16T10:29:05.161Z,10.77
2022-11-16T10:31:51.514Z,10.75
2022-11-16T10:34:23.449Z,10.81
2022-11-16T10:36:51.559Z,10.85
2022-11-16T10:39:21.373Z,10.85
2022-11-16T10:41:50.879Z,10.89
2022-11-16T10:44:26.969Z,10.89
2022-11-16T10:47:01.793Z,11.06
2022-11-16T10:49:37.258Z,11.18
2022-11-16T10:52:05.476Z,11.26
2022-11-16T10:54:36.145Z,11.29
2022-11-16T10:57:14.036Z,11.35
2022-11-16T10:59:44.860Z,11.34
2022-11-16T11:02:34.596Z,11.40
2022-11-16T11:05:06.382Z,11.36
2022-11-16T11:07:37.771Z,11.21
2022-11-16T11:10:22.628Z,11.22
2022-11-16T11:13:04.380Z,11.24
2022-11-16T11:15:32.380Z,11.07
2022-11-16T11:18:19.110Z,11.19
2022-11-16T11:20:50.350Z,11.16
2022-11-16T11:23:21.330Z,10.92
2022-11-16T11:25:56.454Z,11.17
2022-11-16T11:28:28.566Z,11.24
2022-11-16T11:31:00.618Z,10.93
2022-11-16T11:33:30.910Z,10.78
2022-11-16T11:36:03.823Z,10.91
2022-11-16T11:38:32.401Z,10.89
2022-11-16T11:41:05.276Z,11.12
2022-11-16T11:43:35.054Z,11.06
2022-11-16T11:46:16.843Z,11.09
2022-11-16T11:48:52.708Z,11.24
2022-11-16T11:51:27.242Z,11.18
2022-11-16T11:53:57.580Z,11.21
2022-11-16T11:56:28.870Z,11.30
2022-11-16T11:58:57.746Z,11.32
2022-11-16T12:01:56.041Z,10.99
2022-11-16T12:04:45.634Z,10.89
2022-11-16T12:07:26.531Z,11.00
2022-11-16T12:10:03.901Z,11.16
2022-11-16T12:12:46.509Z,11.11
2022-11-16T12:15:37.244Z,11.14
2022-11-16T12:18:18.393Z,11.20
2022-11-16T12:20:54.953Z,11.28
2022-11-16T12:23:48.085Z,11.30
2022-11-16T12:26:29.397Z,11.27
2022-11-16T12:29:13.181Z,11.21
2022-11-16T12:32:19.754Z,11.35
2022-11-16T12:35:01.543Z,11.42
2022-11-16T12:37:37.265Z,11.42
2022-11-16T12:40:24.129Z,11.45
2022-11-16T12:43:00.486Z,11.45
2022-11-16T12:45:46.250Z,11.43
2022-11-16T12:48:43.216Z,11.35
2022-11-16T12:51:20.895Z,11.43
2022-11-16T12:54:22.588Z,11.49
2022-11-16T12:56:57.905Z,11.43
2022-11-16T12:59:54.074Z,11.35
2022-11-16T13:02:34.161Z,11.25
2022-11-16T13:05:06.363Z,11.33
2022-11-16T13:07:43.194Z,11.43
2022-11-16T13:10:18.548Z,11.46
2022-11-16T13:12:55.736Z,11.37
2022-11-16T13:15:37.219Z,11.40
2022-11-16T13:18:09.186Z,11.44
2022-11-16T13:20:46.503Z,11.46
2022-11-16T13:23:24.014Z,11.41
2022-11-16T13:25:59.213Z,11.30
2022-11-16T13:28:36.114Z,11.37
2022-11-16T13:31:11.407Z,11.35
2022-11-16T13:33:50.578Z,11.41
2022-11-16T13:36:43.728Z,11.29
2022-11-16T13:39:18.638Z,11.37
2022-11-16T13:41:51.513Z,11.32
2022-11-16T13:44:29.589Z,11.32
2022-11-16T13:47:04.779Z,11.31
2022-11-16T13:49:41.020Z,11.36
2022-11-16T13:52:23.122Z,11.40
2022-11-16T13:54:54.361Z,11.32
2022-11-16T13:57:26.861Z,11.31
2022-11-16T14:00:11.574Z,11.22
2022-11-16T14:02:41.321Z,11.22
2022-11-16T14:05:37.821Z,11.21
2022-11-16T14:08:58.790Z,11.21
2022-11-16T14:11:37.549Z,11.19
2022-11-16T14:14:07.356Z,11.17
2022-11-16T14:16:56.341Z,11.14
2022-11-16T14:19:55.218Z,11.15
2022-11-16T14:22:53.888Z,11.09
2022-11-16T14:25:31.925Z,11.09
2022-11-16T14:28:12.742Z,11.08
2022-11-16T14:30:51.811Z,10.96
2022-11-16T14:33:31.848Z,10.86
2022-11-16T14:36:03.483Z,10.85
2022-11-16T14:38:35.146Z,10.70
2022-11-16T14:41:05.820Z,10.67
2022-11-16T14:43:41.278Z,10.63
2022-11-16T14:46:15.071Z,10.53
2022-11-16T14:48:47.570Z,10.48
2022-11-16T14:51:19.620Z,10.32
2022-11-16T14:53:51.525Z,10.15
2022-11-16T14:56:20.467Z,10.05
2022-11-16T14:58:56.120Z,9.98
2022-11-16T15:01:28.451Z,9.75
2022-11-16T15:04:02.457Z,9.66
2022-11-16T15:06:34.320Z,9.71
2022-11-16T15:09:05.590Z,9.66
2022-11-16T15:11:54.829Z,9.71
2022-11-16T15:14:26.099Z,9.64
2022-11-16T15:16:55.640Z,9.60
2022-11-16T15:19:24.533Z,9.40
2022-11-16T15:21:54.930Z,9.30
2022-11-16T15:24:31.461Z,8.93
2022-11-16T15:27:11.545Z,9.08
2022-11-16T15:29:40.067Z,8.96
2022-11-16T15:32:14.569Z,8.98
2022-11-16T15:34:42.758Z,8.92
2022-11-16T15:37:15.200Z,8.88
2022-11-16T15:39:44.957Z,8.74
2022-11-16T15:42:16.721Z,8.75
2022-11-16T15:44:45.360Z,8.53
2022-11-16T15:47:14.470Z,8.54
2022-11-16T15:49:44.168Z,8.49
2022-11-16T15:52:12.428Z,8.51
2022-11-16T15:54:54.255Z,8.48
2022-11-16T15:57:25.259Z,8.40
2022-11-16T15:59:55.862Z,8.22
2022-11-16T16:02:28.259Z,8.25
2022-11-16T16:04:56.308Z,8.28
2022-11-16T16:07:41.512Z,8.28
2022-11-16T16:10:25.328Z,8.03
2022-11-16T16:12:56.614Z,8.02
2022-11-16T16:15:27.146Z,8.07
2022-11-16T16:17:55.780Z,8.12
2022-11-16T16:20:26.056Z,8.14
2022-11-16T16:22:54.386Z,8.30
2022-11-16T16:25:34.120Z,8.35
2022-11-16T16:28:03.896Z,8.41
2022-11-16T16:30:34.781Z,8.41
2022-11-16T16:33:02.873Z,8.34
2022-11-16T16:35:30.898Z,8.28
2022-11-16T16:38:00.877Z,8.30
2022-11-16T16:40:29.094Z,8.41
2022-11-16T16:42:58.013Z,8.49
2022-11-16T16:45:37.151Z,8.58
2022-11-16T16:48:05.404Z,8.55
2022-11-16T16:50:33.543Z,8.61
2022-11-16T16:53:01.782Z,8.61
2022-11-16T16:55:35.694Z,8.60
2022-11-16T16:58:05.300Z,8.67
2022-11-16T17:00:34.785Z,8.64
2022-11-16T17:03:02.839Z,8.70
2022-11-16T17:05:32.850Z,8.70
2022-11-16T17:08:01.388Z,8.84
2022-11-16T17:10:29.426Z,8.90
2022-11-16T17:12:58.414Z,8.89
2022-11-16T17:15:26.537Z,8.88
2022-11-16T17:17:55.943Z,8.89
2022-11-16T17:20:23.953Z,8.95
2022-11-16T17:22:51.961Z,8.92
2022-11-16T17:25:20.875Z,8.91
2022-11-16T17:27:49.325Z,8.88
2022-11-16T17:30:17.709Z,8.59
2022-11-16T17:32:48.704Z,8.75
2022-11-16T17:35:18.327Z,8.81
2022-11-16T17:37:46.735Z,8.84
2022-11-16T17:40:15.544Z,8.80
2022-11-16T17:42:44.216Z,8.71
2022-11-16T17:45:12.484Z,8.62
2022-11-16T17:47:40.900Z,8.68
2022-11-16T17:50:09.961Z,8.73
2022-11-16T17:52:39.240Z,8.63
2022-11-16T17:55:13.449Z,8.67
2022-11-16T17:57:41.143Z,8.73
2022-11-16T18:00:10.308Z,8.69
2022-11-16T18:02:38.198Z,8.77
2022-11-16T18:05:06.794Z,8.79
2022-11-16T18:07:36.255Z,8.67
2022-11-16T18:10:06.491Z,8.86
2022-11-16T18:12:34.375Z,8.87
2022-11-16T18:15:26.895Z,8.87
2022-11-16T18:17:50.179Z,8.93
2022-11-16T18:20:18.145Z,8.79
2022-11-16T18:22:46.167Z,8.57
2022-11-16T18:25:15.501Z,8.48
2022-11-16T18:27:43.424Z,8.57
2022-11-16T18:30:12.529Z,8.68
2022-11-16T18:32:40.437Z,8.67
2022-11-16T18:35:10.072Z,8.82
2022-11-16T18:37:38.064Z,8.91
2022-11-16T18:40:06.865Z,8.93
2022-11-16T18:42:36.817Z,9.01
2022-11-16T18:45:05.205Z,9.00
2022-11-16T18:47:33.155Z,8.94
2022-11-16T18:50:01.116Z,9.02
2022-11-16T18:52:29.105Z,9.06
2022-11-16T18:54:57.034Z,9.08
2022-11-16T18:57:24.970Z,9.11
2022-11-16T18:59:54.286Z,9.15
2022-11-16T19:02:22.359Z,9.17
2022-11-16T19:04:50.280Z,9.23
2022-11-16T19:07:18.231Z,9.20
2022-11-16T19:09:46.216Z,9.12
2022-11-16T19:12:14.169Z,9.06
2022-11-16T19:14:42.091Z,9.14
2022-11-16T19:17:11.406Z,9.25
2022-11-16T19:19:39.329Z,9.28
2022-11-16T19:22:07.249Z,9.42
2022-11-16T19:24:35.165Z,9.48
2022-11-16T19:27:03.082Z,9.54
2022-11-16T19:29:31.009Z,9.50
2022-11-16T19:31:58.935Z,9.54
2022-11-16T19:34:33.121Z,9.52
2022-11-16T19:37:01.459Z,9.47
2022-11-16T19:39:29.368Z,9.38
2022-11-16T19:41:57.336Z,9.43
2022-11-16T19:44:25.286Z,9.38
2022-11-16T19:46:54.553Z,9.48
2022-11-16T19:49:23.440Z,9.52
2022-11-16T19:51:52.963Z,9.53
2022-11-16T19:54:20.897Z,9.45
2022-11-16T19:56:54.704Z,9.48
2022-11-16T19:59:22.886Z,9.48
2022-11-16T20:01:50.806Z,9.49
2022-11-16T20:04:18.720Z,9.53
2022-11-16T20:06:46.648Z,9.54
2022-11-16T20:09:15.984Z,9.64
2022-11-16T20:11:43.916Z,9.71
2022-11-16T20:14:13.768Z,9.72
2022-11-16T20:16:43.041Z,9.84
2022-11-16T20:19:12.146Z,9.85
2022-11-16T20:21:41.614Z,9.96
2022-11-16T20:24:13.167Z,9.96
2022-11-16T20:26:44.735Z,9.89
2022-11-16T20:29:13.065Z,9.82
2022-11-16T20:31:42.911Z,9.69
2022-11-16T20:34:14.131Z,9.72
2022-11-16T20:36:43.364Z,9.80
2022-11-16T20:39:14.899Z,9.98
2022-11-16T20:41:45.049Z,10.00
2022-11-16T20:44:16.868Z,10.01
2022-11-16T20:46:45.368Z,10.06
2022-11-16T20:49:13.676Z,10.09
2022-11-16T20:51:41.724Z,10.08
2022-11-16T20:54:09.738Z,10.08
2022-11-16T20:56:37.795Z,9.97
2022-11-16T20:59:07.100Z,10.01
2022-11-16T21:01:35.195Z,10.09
2022-11-16T21:04:05.207Z,9.99
2022-11-16T21:06:33.957Z,10.01
2022-11-16T21:09:01.959Z,10.15
2022-11-16T21:11:52.338Z,10.16
2022-11-16T21:14:20.829Z,10.18
2022-11-16T21:16:48.751Z,10.12
2022-11-16T21:19:19.450Z,10.12
2022-11-16T21:21:47.340Z,10.12
2022-11-16T21:24:15.281Z,10.18
2022-11-16T21:26:43.215Z,10.23
2022-11-16T21:29:11.109Z,10.19
2022-11-16T21:31:40.406Z,10.19
2022-11-16T21:34:08.637Z,10.23
2022-11-16T21:36:37.156Z,10.18
2022-11-16T21:39:05.212Z,10.23
2022-11-16T21:41:33.111Z,10.14
2022-11-16T21:44:01.004Z,10.26
2022-11-16T21:46:29.096Z,10.32
2022-11-16T21:48:59.181Z,10.33
2022-11-16T21:51:28.245Z,10.32
2022-11-16T21:53:56.529Z,10.31
2022-11-16T21:56:26.278Z,10.31
2022-11-16T21:58:54.787Z,10.24
2022-11-16T22:01:23.516Z,10.23
2022-11-16T22:04:05.774Z,10.19
2022-11-16T22:06:52.592Z,10.15
2022-11-16T22:09:20.590Z,10.19
2022-11-16T22:11:48.502Z,10.18
2022-11-16T22:14:16.431Z,10.23
2022-11-16T22:16:44.357Z,10.21
2022-11-16T22:19:12.313Z,10.14
2022-11-16T22:21:41.760Z,10.16
2022-11-16T22:24:09.966Z,10.05
2022-11-16T22:26:39.972Z,9.89
2022-11-16T22:29:07.912Z,9.99
2022-11-16T22:31:36.451Z,10.05
2022-11-16T22:34:04.491Z,10.02
2022-11-16T22:36:32.392Z,10.07
2022-11-16T22:39:02.014Z,10.01
2022-11-16T22:41:29.940Z,10.06
2022-11-16T22:43:57.893Z,10.07
2022-11-16T22:46:25.845Z,10.09
2022-11-16T22:48:53.773Z,10.03
2022-11-16T22:51:23.435Z,9.90
2022-11-16T22:53:54.034Z,9.90
2022-11-16T22:56:23.688Z,9.77
2022-11-16T22:58:51.821Z,9.67
2022-11-16T23:01:20.340Z,9.64
2022-11-16T23:03:49.039Z,9.75
2022-11-16T23:06:17.524Z,9.84
2022-11-16T23:08:45.443Z,9.85
2022-11-16T23:11:32.746Z,9.84
2022-11-16T23:14:20.047Z,9.96
2022-11-16T23:16:48.790Z,9.99
2022-11-16T23:19:36.110Z,9.99
2022-11-16T23:22:22.076Z,9.92
2022-11-16T23:25:07.350Z,9.99
2022-11-16T23:27:41.673Z,9.96
2022-11-16T23:30:13.289Z,9.94
2022-11-16T23:32:41.753Z,10.06
2022-11-16T23:35:10.260Z,10.16
2022-11-16T23:37:51.638Z,10.24
2022-11-16T23:40:20.005Z,10.17
2022-11-16T23:43:05.530Z,10.25
2022-11-16T23:45:34.882Z,10.23
2022-11-16T23:48:02.812Z,10.28
2022-11-16T23:50:30.753Z,10.21
2022-11-16T23:52:58.698Z,10.19
2022-11-16T23:55:26.779Z,10.24
2022-11-16T23:57:54.904Z,10.09
